createdAt,value
2016-09-25T00:00:00.025Z,14.99
2016-09-25T00:01:00.019Z,14.95
2016-09-25T00:02:00.326Z,14.94
2016-09-25T00:02:59.997Z,14.91
2016-09-25T00:03:59.980Z,14.87
2016-09-25T00:04:59.988Z,14.9
2016-09-25T00:05:59.965Z,14.81
2016-09-25T00:06:59.985Z,14.84
2016-09-25T00:07:59.944Z,14.74
2016-09-25T00:08:59.933Z,14.75
2016-09-25T00:09:59.918Z,14.71
2016-09-25T00:10:59.909Z,14.8
2016-09-25T00:12:00.219Z,14.68
2016-09-25T00:13:00.206Z,14.72
2016-09-25T00:13:59.878Z,14.64
2016-09-25T00:14:59.870Z,14.69
2016-09-25T00:15:59.861Z,14.64
2016-09-25T00:16:59.851Z,14.56
2016-09-25T00:18:00.507Z,14.62
2016-09-25T00:19:00.145Z,14.67
2016-09-25T00:19:59.818Z,14.54
2016-09-25T00:20:59.804Z,14.6
2016-09-25T00:22:00.114Z,14.6
2016-09-25T00:22:59.783Z,14.62
2016-09-25T00:23:59.776Z,14.54
2016-09-25T00:24:59.765Z,14.5
2016-09-25T00:26:00.374Z,14.49
2016-09-25T00:26:59.740Z,14.47
2016-09-25T00:27:59.733Z,14.5
2016-09-25T00:29:00.030Z,14.5
2016-09-25T00:29:59.705Z,14.49
2016-09-25T00:30:59.695Z,14.52
2016-09-25T00:31:59.686Z,14.46
2016-09-25T00:32:59.675Z,14.44
2016-09-25T00:33:59.663Z,14.39
2016-09-25T00:34:59.982Z,14.46
2016-09-25T00:35:59.643Z,14.44
2016-09-25T00:36:59.634Z,14.46
2016-09-25T00:37:59.626Z,14.42
2016-09-25T00:38:59.611Z,14.42
2016-09-25T00:39:59.598Z,14.35
2016-09-25T00:40:59.588Z,14.35
2016-09-25T00:41:59.627Z,14.37
2016-09-25T00:42:59.775Z,14.28
2016-09-25T00:43:59.559Z,14.19
2016-09-25T00:44:59.548Z,14.31
2016-09-25T00:45:59.844Z,14.29
2016-09-25T00:46:59.525Z,14.29
2016-09-25T00:47:59.537Z,14.32
2016-09-25T00:48:59.505Z,14.28
2016-09-25T00:49:59.494Z,14.27
2016-09-25T00:50:59.791Z,14.2
2016-09-25T00:51:59.468Z,14.19
2016-09-25T00:52:59.463Z,14.17
2016-09-25T00:53:59.449Z,14.13
2016-09-25T00:54:59.435Z,14.09
2016-09-25T00:55:59.432Z,14.06
2016-09-25T00:56:59.411Z,14.09
2016-09-25T00:57:59.408Z,14.07
2016-09-25T00:58:59.396Z,14.1
2016-09-25T00:59:59.386Z,13.99
2016-09-25T01:00:59.376Z,14.06
2016-09-25T01:01:59.360Z,13.94
2016-09-25T01:02:59.350Z,13.95
2016-09-25T01:03:59.338Z,13.94
2016-09-25T01:04:59.327Z,13.99
2016-09-25T01:05:59.327Z,13.98
2016-09-25T01:06:59.357Z,13.89
2016-09-25T01:07:59.296Z,13.88
2016-09-25T01:08:59.603Z,13.88
2016-09-25T01:09:59.271Z,13.8
2016-09-25T01:10:59.259Z,13.92
2016-09-25T01:11:59.252Z,13.87
2016-09-25T01:12:59.237Z,13.79
2016-09-25T01:13:59.224Z,13.79
2016-09-25T01:14:59.215Z,13.81
2016-09-25T01:15:59.208Z,13.81
2016-09-25T01:16:59.193Z,13.79
2016-09-25T01:17:59.185Z,13.83
2016-09-25T01:18:59.175Z,13.77
2016-09-25T01:19:59.168Z,13.8
2016-09-25T01:20:59.152Z,13.79
2016-09-25T01:21:59.137Z,13.8
2016-09-25T01:22:59.451Z,13.79
2016-09-25T01:23:59.117Z,13.79
2016-09-25T01:24:59.109Z,13.8
2016-09-25T01:25:59.417Z,13.79
2016-09-25T01:26:59.086Z,13.76
2016-09-25T01:27:59.382Z,13.67
2016-09-25T01:28:59.059Z,13.77
2016-09-25T01:29:59.057Z,13.71
2016-09-25T01:30:59.041Z,13.71
2016-09-25T01:31:59.028Z,13.76
2016-09-25T01:32:59.029Z,13.77
2016-09-25T01:33:59.325Z,13.74
2016-09-25T01:34:58.999Z,13.81
2016-09-25T01:35:58.979Z,13.69
2016-09-25T01:36:58.975Z,13.69
2016-09-25T01:37:58.956Z,13.76
2016-09-25T01:38:58.947Z,13.7
2016-09-25T01:39:58.937Z,13.71
2016-09-25T01:40:59.239Z,13.69
2016-09-25T01:41:58.915Z,13.71
2016-09-25T01:42:58.907Z,13.77
2016-09-25T01:43:58.891Z,13.63
2016-09-25T01:44:58.878Z,13.63
2016-09-25T01:45:58.868Z,13.65
2016-09-25T01:46:58.863Z,13.65
2016-09-25T01:47:58.851Z,13.67
2016-09-25T01:48:59.153Z,13.63
2016-09-25T01:49:58.829Z,13.63
2016-09-25T01:50:59.131Z,13.59
2016-09-25T01:51:59.114Z,13.69
2016-09-25T01:52:58.796Z,13.61
2016-09-25T01:53:58.827Z,13.65
2016-09-25T01:54:59.080Z,13.63
2016-09-25T01:55:58.757Z,13.61
2016-09-25T01:56:59.059Z,13.55
2016-09-25T01:57:58.782Z,13.54
2016-09-25T01:58:59.036Z,13.56
2016-09-25T01:59:58.710Z,13.52
2016-09-25T02:00:59.009Z,13.46
2016-09-25T02:01:58.688Z,13.41
2016-09-25T02:02:58.677Z,13.41
2016-09-25T02:03:58.665Z,13.44
2016-09-25T02:04:58.661Z,13.41
2016-09-25T02:05:58.637Z,13.38
2016-09-25T02:06:58.632Z,13.3
2016-09-25T02:07:58.616Z,13.29
2016-09-25T02:08:58.975Z,13.41
2016-09-25T02:09:58.597Z,13.41
2016-09-25T02:10:58.587Z,13.38
2016-09-25T02:11:58.573Z,13.33
2016-09-25T02:12:58.561Z,13.33
2016-09-25T02:13:58.658Z,13.3
2016-09-25T02:14:58.539Z,13.25
2016-09-25T02:15:58.526Z,13.38
2016-09-25T02:16:58.841Z,13.27
2016-09-25T02:17:58.551Z,13.29
2016-09-25T02:18:58.806Z,13.25
2016-09-25T02:19:58.488Z,13.27
2016-09-25T02:20:58.787Z,13.32
2016-09-25T02:21:58.771Z,13.32
2016-09-25T02:22:58.757Z,13.3
2016-09-25T02:23:58.435Z,13.3
2016-09-25T02:24:58.738Z,13.36
2016-09-25T02:25:58.727Z,13.32
2016-09-25T02:26:58.400Z,13.3
2016-09-25T02:27:58.396Z,13.33
2016-09-25T02:28:58.378Z,13.32
2016-09-25T02:29:58.360Z,13.29
2016-09-25T02:30:58.361Z,13.27
2016-09-25T02:31:58.345Z,13.3
2016-09-25T02:32:58.333Z,13.36
2016-09-25T02:33:58.321Z,13.29
2016-09-25T02:34:58.622Z,13.25
2016-09-25T02:35:58.305Z,13.25
2016-09-25T02:36:58.286Z,13.32
2016-09-25T02:37:58.329Z,13.32
2016-09-25T02:38:58.271Z,13.27
2016-09-25T02:39:58.251Z,13.32
2016-09-25T02:40:58.241Z,13.29
2016-09-25T02:41:58.229Z,13.24
2016-09-25T02:42:58.421Z,13.32
2016-09-25T02:43:58.206Z,13.21
2016-09-25T02:44:58.191Z,13.18
2016-09-25T02:45:58.198Z,13.21
2016-09-25T02:46:58.195Z,13.14
2016-09-25T02:47:58.168Z,13.14
2016-09-25T02:48:58.176Z,13.11
2016-09-25T02:49:58.192Z,13.09
2016-09-25T02:50:58.177Z,13.15
2016-09-25T02:51:58.116Z,13.15
2016-09-25T02:52:58.105Z,13.09
2016-09-25T02:53:58.091Z,13.06
2016-09-25T02:54:58.073Z,13.09
2016-09-25T02:55:58.074Z,13.09
2016-09-25T02:56:58.066Z,13.12
2016-09-25T02:57:58.050Z,13.11
2016-09-25T02:58:58.031Z,13.11
2016-09-25T02:59:58.077Z,13.09
2016-09-25T03:00:58.015Z,13.17
2016-09-25T03:01:58.013Z,13.18
2016-09-25T03:02:57.988Z,13.09
2016-09-25T03:03:58.300Z,13
2016-09-25T03:04:57.959Z,13.09
2016-09-25T03:05:57.961Z,12.99
2016-09-25T03:06:57.940Z,13.04
2016-09-25T03:07:57.955Z,12.97
2016-09-25T03:08:57.932Z,13.06
2016-09-25T03:09:58.252Z,12.97
2016-09-25T03:10:57.891Z,12.99
2016-09-25T03:11:57.891Z,12.92
2016-09-25T03:12:58.181Z,12.95
2016-09-25T03:13:57.855Z,12.93
2016-09-25T03:14:57.845Z,12.88
2016-09-25T03:15:57.831Z,12.85
2016-09-25T03:16:57.823Z,12.85
2016-09-25T03:17:57.816Z,12.88
2016-09-25T03:18:57.795Z,12.82
2016-09-25T03:19:58.427Z,12.82
2016-09-25T03:20:57.774Z,12.78
2016-09-25T03:21:57.759Z,12.79
2016-09-25T03:22:58.066Z,12.79
2016-09-25T03:23:57.745Z,12.78
2016-09-25T03:24:57.742Z,12.69
2016-09-25T03:25:57.724Z,12.66
2016-09-25T03:26:58.056Z,12.7
2016-09-25T03:27:57.710Z,12.6
2016-09-25T03:28:57.903Z,12.67
2016-09-25T03:29:58.001Z,12.59
2016-09-25T03:30:57.659Z,12.6
2016-09-25T03:31:57.953Z,12.67
2016-09-25T03:32:57.632Z,12.54
2016-09-25T03:33:57.626Z,12.63
2016-09-25T03:34:57.927Z,12.52
2016-09-25T03:35:57.912Z,12.57
2016-09-25T03:36:57.900Z,12.49
2016-09-25T03:37:57.591Z,12.49
2016-09-25T03:38:57.874Z,12.52
2016-09-25T03:39:57.553Z,12.57
2016-09-25T03:40:57.848Z,12.54
2016-09-25T03:41:57.528Z,12.51
2016-09-25T03:42:57.516Z,12.6
2016-09-25T03:43:57.505Z,12.52
2016-09-25T03:44:57.810Z,12.54
2016-09-25T03:45:57.487Z,12.48
2016-09-25T03:46:57.468Z,12.51
2016-09-25T03:47:57.454Z,12.46
2016-09-25T03:48:57.439Z,12.54
2016-09-25T03:49:57.431Z,12.48
2016-09-25T03:50:57.737Z,12.45
2016-09-25T03:51:57.407Z,12.6
2016-09-25T03:52:57.705Z,12.57
2016-09-25T03:53:57.377Z,12.52
2016-09-25T03:54:57.679Z,12.49
2016-09-25T03:55:57.672Z,12.51
2016-09-25T03:56:57.350Z,12.54
2016-09-25T03:57:57.647Z,12.49
2016-09-25T03:58:57.640Z,12.63
2016-09-25T03:59:57.309Z,12.49
2016-09-25T04:00:57.304Z,12.52
2016-09-25T04:01:57.288Z,12.54
2016-09-25T04:02:57.679Z,12.52
2016-09-25T04:03:57.313Z,12.45
2016-09-25T04:04:57.252Z,12.45
2016-09-25T04:05:57.237Z,12.44
2016-09-25T04:06:57.230Z,12.51
2016-09-25T04:07:57.207Z,12.54
2016-09-25T04:08:57.204Z,12.54
2016-09-25T04:09:57.503Z,12.49
2016-09-25T04:10:57.177Z,12.49
2016-09-25T04:11:57.475Z,12.39
2016-09-25T04:12:57.156Z,12.34
2016-09-25T04:13:57.146Z,12.48
2016-09-25T04:14:57.125Z,12.37
2016-09-25T04:15:57.432Z,12.41
2016-09-25T04:16:57.106Z,12.41
2016-09-25T04:17:57.092Z,12.41
2016-09-25T04:18:57.709Z,12.38
2016-09-25T04:19:57.067Z,12.41
2016-09-25T04:20:57.059Z,12.41
2016-09-25T04:21:57.359Z,12.51
2016-09-25T04:22:57.032Z,12.41
2016-09-25T04:23:57.337Z,12.51
2016-09-25T04:24:57.007Z,12.34
2016-09-25T04:25:57.307Z,12.46
2016-09-25T04:26:57.301Z,12.51
2016-09-25T04:27:56.971Z,12.49
2016-09-25T04:28:56.969Z,12.52
2016-09-25T04:29:56.943Z,12.59
2016-09-25T04:30:56.938Z,12.37
2016-09-25T04:31:56.924Z,12.45
2016-09-25T04:32:56.922Z,12.46
2016-09-25T04:33:56.907Z,12.45
2016-09-25T04:34:57.210Z,12.46
2016-09-25T04:35:56.887Z,12.41
2016-09-25T04:36:56.866Z,12.42
2016-09-25T04:37:56.849Z,12.52
2016-09-25T04:38:56.843Z,12.48
2016-09-25T04:39:56.828Z,12.49
2016-09-25T04:40:57.126Z,12.49
2016-09-25T04:41:56.802Z,12.33
2016-09-25T04:42:57.198Z,12.38
2016-09-25T04:43:56.782Z,12.46
2016-09-25T04:44:56.815Z,12.34
2016-09-25T04:45:57.067Z,12.45
2016-09-25T04:46:57.064Z,12.38
2016-09-25T04:47:57.039Z,12.37
2016-09-25T04:48:57.033Z,12.34
2016-09-25T04:49:56.755Z,12.38
2016-09-25T04:50:56.697Z,12.44
2016-09-25T04:51:56.993Z,12.34
2016-09-25T04:52:56.666Z,12.34
2016-09-25T04:53:56.703Z,12.23
2016-09-25T04:54:56.657Z,12.31
2016-09-25T04:55:57.268Z,12.29
2016-09-25T04:56:56.617Z,12.29
2016-09-25T04:57:56.931Z,12.26
2016-09-25T04:58:56.606Z,12.26
2016-09-25T04:59:56.581Z,12.27
2016-09-25T05:00:56.569Z,12.29
2016-09-25T05:01:56.561Z,12.34
2016-09-25T05:02:56.549Z,12.38
2016-09-25T05:03:56.535Z,12.42
2016-09-25T05:04:56.524Z,12.38
2016-09-25T05:05:56.823Z,12.41
2016-09-25T05:06:56.816Z,12.37
2016-09-25T05:07:56.501Z,12.34
2016-09-25T05:08:56.477Z,12.41
2016-09-25T05:09:56.518Z,12.34
2016-09-25T05:10:56.452Z,12.37
2016-09-25T05:11:56.755Z,12.45
2016-09-25T05:12:56.433Z,12.34
2016-09-25T05:13:56.746Z,12.41
2016-09-25T05:14:56.401Z,12.39
2016-09-25T05:15:56.450Z,12.42
2016-09-25T05:16:56.377Z,12.41
2016-09-25T05:17:56.679Z,12.38
2016-09-25T05:18:56.351Z,12.39
2016-09-25T05:19:56.361Z,12.41
2016-09-25T05:20:56.326Z,12.37
2016-09-25T05:21:56.657Z,12.37
2016-09-25T05:22:56.303Z,12.38
2016-09-25T05:23:56.308Z,12.39
2016-09-25T05:24:56.277Z,12.37
2016-09-25T05:25:56.267Z,12.37
2016-09-25T05:26:56.257Z,12.44
2016-09-25T05:27:56.251Z,12.45
2016-09-25T05:28:56.231Z,12.39
2016-09-25T05:29:56.217Z,12.39
2016-09-25T05:30:56.840Z,12.45
2016-09-25T05:31:56.197Z,12.37
2016-09-25T05:32:56.514Z,12.46
2016-09-25T05:33:56.173Z,12.42
2016-09-25T05:34:56.156Z,12.39
2016-09-25T05:35:56.464Z,12.48
2016-09-25T05:36:56.451Z,12.46
2016-09-25T05:37:56.121Z,12.46
2016-09-25T05:38:56.106Z,12.52
2016-09-25T05:39:56.101Z,12.49
2016-09-25T05:40:56.087Z,12.48
2016-09-25T05:41:56.081Z,12.56
2016-09-25T05:42:56.060Z,12.54
2016-09-25T05:43:56.055Z,12.66
2016-09-25T05:44:56.040Z,12.64
2016-09-25T05:45:56.029Z,12.69
2016-09-25T05:46:56.328Z,12.64
2016-09-25T05:47:56.000Z,12.71
2016-09-25T05:48:55.990Z,12.75
2016-09-25T05:49:55.977Z,12.67
2016-09-25T05:50:55.981Z,12.79
2016-09-25T05:51:55.950Z,12.81
2016-09-25T05:52:55.954Z,12.75
2016-09-25T05:53:55.933Z,12.82
2016-09-25T05:54:56.234Z,12.79
2016-09-25T05:55:55.912Z,12.87
2016-09-25T05:56:55.904Z,12.88
2016-09-25T05:57:55.884Z,12.85
2016-09-25T05:58:55.887Z,12.79
2016-09-25T05:59:55.867Z,12.82
2016-09-25T06:00:55.869Z,12.82
2016-09-25T06:01:55.828Z,12.85
2016-09-25T06:02:55.835Z,12.92
2016-09-25T06:03:55.807Z,12.84
2016-09-25T06:04:55.799Z,12.87
2016-09-25T06:05:55.833Z,12.89
2016-09-25T06:06:55.768Z,13.06
2016-09-25T06:07:55.760Z,13.03
2016-09-25T06:08:55.748Z,13.02
2016-09-25T06:09:56.051Z,13.12
2016-09-25T06:10:55.728Z,13.18
2016-09-25T06:11:55.716Z,13.22
2016-09-25T06:12:55.700Z,13.15
2016-09-25T06:13:55.688Z,13.25
2016-09-25T06:14:55.678Z,13.32
2016-09-25T06:15:55.979Z,13.3
2016-09-25T06:16:55.965Z,13.33
2016-09-25T06:17:55.655Z,13.32
2016-09-25T06:18:55.631Z,13.43
2016-09-25T06:19:55.621Z,13.38
2016-09-25T06:20:55.609Z,13.43
2016-09-25T06:21:56.218Z,13.49
2016-09-25T06:22:55.904Z,13.51
2016-09-25T06:23:55.885Z,13.52
2016-09-25T06:24:55.876Z,13.58
2016-09-25T06:25:55.547Z,13.55
2016-09-25T06:26:55.544Z,13.59
2016-09-25T06:27:55.526Z,13.63
2016-09-25T06:28:55.832Z,13.73
2016-09-25T06:29:55.507Z,13.79
2016-09-25T06:30:55.809Z,13.76
2016-09-25T06:31:55.476Z,13.79
2016-09-25T06:32:55.467Z,13.71
2016-09-25T06:33:55.459Z,13.83
2016-09-25T06:34:55.441Z,13.8
2016-09-25T06:35:55.450Z,13.83
2016-09-25T06:36:55.422Z,13.83
2016-09-25T06:37:55.722Z,13.81
2016-09-25T06:38:55.399Z,13.89
2016-09-25T06:39:55.391Z,13.83
2016-09-25T06:40:55.380Z,13.94
2016-09-25T06:41:55.363Z,14.02
2016-09-25T06:42:55.351Z,14.07
2016-09-25T06:43:55.860Z,14.16
2016-09-25T06:44:55.644Z,14.16
2016-09-25T06:45:55.326Z,14.17
2016-09-25T06:46:55.317Z,14.28
2016-09-25T06:47:55.299Z,14.27
2016-09-25T06:48:55.285Z,14.39
2016-09-25T06:49:55.587Z,14.34
2016-09-25T06:50:55.578Z,14.44
2016-09-25T06:51:55.252Z,14.46
2016-09-25T06:52:55.454Z,14.47
2016-09-25T06:53:55.278Z,14.49
2016-09-25T06:54:55.219Z,14.49
2016-09-25T06:55:55.521Z,14.47
2016-09-25T06:56:55.198Z,14.52
2016-09-25T06:57:55.186Z,14.47
2016-09-25T06:58:55.173Z,14.5
2016-09-25T06:59:55.163Z,14.43
2016-09-25T07:00:55.155Z,14.47
2016-09-25T07:01:55.145Z,14.42
2016-09-25T07:02:55.140Z,14.52
2016-09-25T07:03:55.447Z,14.46
2016-09-25T07:04:55.437Z,14.46
2016-09-25T07:05:55.407Z,14.49
2016-09-25T07:06:55.404Z,14.49
2016-09-25T07:07:55.073Z,14.5
2016-09-25T07:08:55.057Z,14.54
2016-09-25T07:09:55.071Z,14.52
2016-09-25T07:10:55.373Z,14.68
2016-09-25T07:11:55.037Z,14.69
2016-09-25T07:12:55.026Z,14.72
2016-09-25T07:13:55.022Z,14.78
2016-09-25T07:14:55.002Z,14.88
2016-09-25T07:15:54.990Z,14.83
2016-09-25T07:16:55.172Z,14.93
2016-09-25T07:17:55.281Z,15.01
2016-09-25T07:18:54.959Z,15.09
2016-09-25T07:19:54.946Z,15.08
2016-09-25T07:20:54.943Z,15.12
2016-09-25T07:21:55.247Z,15.13
2016-09-25T07:22:54.917Z,15.24
2016-09-25T07:23:54.908Z,15.27
2016-09-25T07:24:54.892Z,15.33
2016-09-25T07:25:54.894Z,15.39
2016-09-25T07:26:54.923Z,15.41
2016-09-25T07:27:54.871Z,15.43
2016-09-25T07:28:54.848Z,15.46
2016-09-25T07:29:55.467Z,15.46
2016-09-25T07:30:55.139Z,15.54
2016-09-25T07:31:55.131Z,15.64
2016-09-25T07:32:54.806Z,15.57
2016-09-25T07:33:54.797Z,15.67
2016-09-25T07:34:54.786Z,15.68
2016-09-25T07:35:55.087Z,15.66
2016-09-25T07:36:54.762Z,15.7
2016-09-25T07:37:54.758Z,15.79
2016-09-25T07:38:54.745Z,15.81
2016-09-25T07:39:54.753Z,15.82
2016-09-25T07:40:54.728Z,15.89
2016-09-25T07:41:54.713Z,15.94
2016-09-25T07:42:54.708Z,15.94
2016-09-25T07:43:54.692Z,15.96
2016-09-25T07:44:54.689Z,16.01
2016-09-25T07:45:54.671Z,16
2016-09-25T07:46:54.666Z,16.04
2016-09-25T07:47:54.967Z,16.07
2016-09-25T07:48:54.647Z,16.07
2016-09-25T07:49:54.627Z,16.2
2016-09-25T07:50:54.624Z,16.15
2016-09-25T07:51:54.609Z,16.23
2016-09-25T07:52:54.606Z,16.35
2016-09-25T07:53:54.593Z,16.44
2016-09-25T07:54:54.576Z,16.49
2016-09-25T07:55:54.574Z,16.59
2016-09-25T07:56:54.563Z,16.56
2016-09-25T07:57:54.864Z,16.71
2016-09-25T07:58:54.541Z,16.8
2016-09-25T07:59:54.530Z,16.78
2016-09-25T08:00:54.523Z,16.83
2016-09-25T08:01:54.525Z,16.81
2016-09-25T08:02:54.502Z,16.98
2016-09-25T08:03:54.501Z,17.03
2016-09-25T08:04:54.798Z,17.06
2016-09-25T08:05:54.476Z,17.15
2016-09-25T08:06:54.784Z,17.28
2016-09-25T08:07:54.453Z,17.28
2016-09-25T08:08:54.452Z,17.4
2016-09-25T08:09:54.435Z,17.4
2016-09-25T08:10:54.749Z,17.48
2016-09-25T08:11:54.420Z,17.48
2016-09-25T08:12:54.413Z,17.53
2016-09-25T08:13:54.402Z,17.62
2016-09-25T08:14:54.394Z,17.67
2016-09-25T08:15:54.390Z,17.66
2016-09-25T08:16:54.650Z,17.76
2016-09-25T08:17:54.378Z,17.92
2016-09-25T08:18:54.376Z,18.1
2016-09-25T08:19:54.338Z,18.09
2016-09-25T08:20:54.675Z,18.13
2016-09-25T08:21:54.654Z,18.13
2016-09-25T08:22:54.317Z,18.21
2016-09-25T08:23:54.319Z,18.24
2016-09-25T08:24:54.301Z,18.15
2016-09-25T08:25:54.291Z,18.22
2016-09-25T08:26:54.289Z,18.24
2016-09-25T08:27:54.269Z,18.28
2016-09-25T08:28:54.588Z,18.25
2016-09-25T08:29:54.269Z,18.28
2016-09-25T08:30:54.248Z,18.25
2016-09-25T08:31:54.561Z,18.34
2016-09-25T08:32:54.232Z,18.39
2016-09-25T08:33:54.222Z,18.37
2016-09-25T08:34:54.216Z,18.39
2016-09-25T08:35:54.204Z,18.39
2016-09-25T08:36:54.199Z,18.39
2016-09-25T08:37:54.197Z,18.4
2016-09-25T08:38:54.171Z,18.39
2016-09-25T08:39:54.176Z,18.37
2016-09-25T08:40:54.163Z,18.47
2016-09-25T08:41:54.465Z,18.44
2016-09-25T08:42:54.140Z,18.54
2016-09-25T08:43:54.164Z,18.61
2016-09-25T08:44:54.132Z,18.62
2016-09-25T08:45:54.431Z,18.59
2016-09-25T08:46:54.118Z,18.76
2016-09-25T08:47:54.103Z,18.8
2016-09-25T08:48:54.098Z,18.87
2016-09-25T08:49:54.398Z,19.01
2016-09-25T08:50:54.389Z,19.14
2016-09-25T08:51:54.425Z,19.31
2016-09-25T08:52:54.060Z,19.42
2016-09-25T08:53:54.051Z,19.6
2016-09-25T08:54:54.058Z,19.73
2016-09-25T08:55:54.030Z,19.8
2016-09-25T08:56:54.031Z,19.98
2016-09-25T08:57:54.019Z,20.02
2016-09-25T08:58:54.334Z,19.98
2016-09-25T08:59:54.004Z,20.16
2016-09-25T09:00:53.986Z,20.2
2016-09-25T09:01:54.309Z,20.23
2016-09-25T09:02:53.986Z,20.27
2016-09-25T09:03:53.965Z,20.27
2016-09-25T09:04:54.287Z,20.24
2016-09-25T09:05:53.953Z,20.33
2016-09-25T09:06:53.945Z,20.43
2016-09-25T09:07:53.941Z,20.47
2016-09-25T09:08:53.930Z,20.51
2016-09-25T09:09:53.919Z,20.62
2016-09-25T09:10:53.926Z,20.62
2016-09-25T09:11:53.903Z,20.8
2016-09-25T09:12:53.905Z,20.79
2016-09-25T09:13:53.893Z,20.84
2016-09-25T09:14:53.894Z,20.83
2016-09-25T09:15:53.871Z,20.95
2016-09-25T09:16:53.870Z,20.91
2016-09-25T09:17:53.858Z,20.98
2016-09-25T09:18:53.846Z,21.08
2016-09-25T09:19:53.842Z,21.23
2016-09-25T09:20:53.843Z,21.29
2016-09-25T09:21:53.829Z,21.34
2016-09-25T09:22:54.138Z,21.26
2016-09-25T09:23:54.128Z,21.36
2016-09-25T09:24:53.804Z,21.35
2016-09-25T09:25:53.802Z,21.48
2016-09-25T09:26:53.788Z,21.56
2016-09-25T09:27:53.784Z,21.72
2016-09-25T09:28:53.794Z,21.74
2016-09-25T09:29:53.769Z,21.94
2016-09-25T09:30:53.764Z,21.85
2016-09-25T09:31:53.762Z,21.92
2016-09-25T09:32:53.749Z,22.01
2016-09-25T09:33:53.748Z,22.07
2016-09-25T09:34:53.734Z,22.06
2016-09-25T09:35:53.727Z,22.2
2016-09-25T09:36:53.728Z,22.34
2016-09-25T09:37:53.716Z,22.32
2016-09-25T09:38:54.017Z,22.35
2016-09-25T09:39:53.708Z,22.39
2016-09-25T09:40:54.007Z,22.5
2016-09-25T09:41:53.685Z,22.46
2016-09-25T09:42:53.679Z,22.57
2016-09-25T09:43:53.678Z,22.62
2016-09-25T09:44:53.981Z,22.68
2016-09-25T09:45:53.662Z,22.82
2016-09-25T09:46:53.651Z,22.89
2016-09-25T09:47:53.962Z,22.87
2016-09-25T09:48:53.639Z,22.89
2016-09-25T09:49:53.647Z,22.92
2016-09-25T09:50:53.640Z,22.94
2016-09-25T09:51:53.618Z,22.99
2016-09-25T09:52:53.614Z,23.01
2016-09-25T09:53:53.955Z,23.02
2016-09-25T09:54:53.609Z,23.12
2016-09-25T09:55:53.913Z,23.08
2016-09-25T09:56:53.584Z,23.14
2016-09-25T09:57:53.581Z,23.26
2016-09-25T09:58:53.575Z,23.39
2016-09-25T09:59:53.567Z,23.38
2016-09-25T10:00:53.564Z,23.39
2016-09-25T10:01:53.876Z,23.4
2016-09-25T10:02:53.859Z,23.4
2016-09-25T10:03:53.542Z,23.45
2016-09-25T10:04:53.537Z,23.47
2016-09-25T10:05:53.527Z,23.47
2016-09-25T10:06:53.524Z,23.47
2016-09-25T10:07:53.860Z,23.52
2016-09-25T10:08:53.826Z,23.58
2016-09-25T10:09:53.719Z,23.55
2016-09-25T10:10:53.504Z,23.67
2016-09-25T10:11:53.821Z,23.68
2016-09-25T10:12:53.488Z,23.7
2016-09-25T10:13:53.478Z,23.7
2016-09-25T10:14:53.474Z,23.72
2016-09-25T10:15:53.477Z,23.7
2016-09-25T10:16:53.460Z,23.62
2016-09-25T10:17:53.448Z,23.75
2016-09-25T10:18:53.783Z,23.62
2016-09-25T10:19:53.764Z,23.7
2016-09-25T10:20:53.443Z,23.72
2016-09-25T10:21:53.752Z,23.76
2016-09-25T10:22:53.426Z,23.92
2016-09-25T10:23:53.420Z,23.89
2016-09-25T10:24:53.726Z,23.97
2016-09-25T10:25:53.403Z,24.01
2016-09-25T10:26:53.404Z,24.04
2016-09-25T10:27:53.446Z,24.04
2016-09-25T10:28:53.386Z,24.19
2016-09-25T10:29:53.698Z,24.22
2016-09-25T10:30:53.379Z,24.19
2016-09-25T10:31:53.373Z,24.22
2016-09-25T10:32:53.373Z,24.32
2016-09-25T10:33:53.359Z,24.31
2016-09-25T10:34:53.358Z,24.39
2016-09-25T10:35:53.347Z,24.42
2016-09-25T10:36:53.342Z,24.42
2016-09-25T10:37:53.340Z,24.47
2016-09-25T10:38:53.332Z,24.54
2016-09-25T10:39:53.643Z,24.59
2016-09-25T10:40:53.323Z,24.68
2016-09-25T10:41:53.319Z,24.54
2016-09-25T10:42:53.314Z,24.59
2016-09-25T10:43:53.711Z,24.56
2016-09-25T10:44:53.304Z,24.59
2016-09-25T10:45:53.610Z,24.71
2016-09-25T10:46:53.290Z,24.92
2016-09-25T10:47:53.290Z,24.98
2016-09-25T10:48:53.280Z,25.06
2016-09-25T10:49:53.275Z,25.16
2016-09-25T10:50:53.268Z,25.19
2016-09-25T10:51:53.278Z,25.22
2016-09-25T10:52:53.480Z,25.31
2016-09-25T10:53:53.566Z,25.3
2016-09-25T10:54:53.565Z,25.28
2016-09-25T10:55:53.244Z,25.32
2016-09-25T10:56:53.236Z,25.32
2016-09-25T10:57:53.544Z,25.46
2016-09-25T10:58:53.231Z,25.47
2016-09-25T10:59:53.537Z,25.39
2016-09-25T11:00:53.219Z,25.52
2016-09-25T11:01:53.213Z,25.52
2016-09-25T11:02:53.239Z,25.64
2016-09-25T11:03:53.205Z,25.69
2016-09-25T11:04:53.204Z,25.75
2016-09-25T11:05:53.506Z,25.8
2016-09-25T11:06:53.502Z,25.8
2016-09-25T11:07:53.189Z,25.77
2016-09-25T11:08:53.180Z,25.8
2016-09-25T11:09:53.174Z,25.83
2016-09-25T11:10:53.171Z,25.9
2016-09-25T11:11:53.168Z,25.86
2016-09-25T11:12:53.476Z,25.91
2016-09-25T11:13:53.161Z,25.9
2016-09-25T11:14:53.156Z,26.02
2016-09-25T11:15:53.152Z,26.06
2016-09-25T11:16:53.157Z,26.06
2016-09-25T11:17:53.138Z,26.09
2016-09-25T11:18:53.465Z,26.09
2016-09-25T11:19:53.444Z,26.15
2016-09-25T11:20:53.131Z,26.21
2016-09-25T11:21:53.124Z,26.36
2016-09-25T11:22:53.427Z,26.32
2016-09-25T11:23:53.435Z,26.4
2016-09-25T11:24:53.118Z,26.42
2016-09-25T11:25:53.104Z,26.46
2016-09-25T11:26:53.104Z,26.65
2016-09-25T11:27:53.095Z,26.77
2016-09-25T11:28:53.097Z,26.84
2016-09-25T11:29:53.098Z,27.23
2016-09-25T11:30:53.086Z,27.26
2016-09-25T11:31:53.401Z,27.39
2016-09-25T11:32:53.080Z,27.39
2016-09-25T11:33:53.391Z,27.48
2016-09-25T11:34:53.081Z,27.42
2016-09-25T11:35:53.084Z,27.57
2016-09-25T11:36:53.409Z,27.64
2016-09-25T11:37:53.394Z,27.85
2016-09-25T11:38:53.411Z,27.85
2016-09-25T11:39:53.088Z,27.89
2016-09-25T11:40:53.055Z,27.85
2016-09-25T11:41:53.380Z,28.01
2016-09-25T11:42:53.398Z,28.13
2016-09-25T11:43:53.382Z,28.26
2016-09-25T11:44:53.060Z,28.32
2016-09-25T11:45:53.061Z,28.46
2016-09-25T11:46:53.054Z,28.43
2016-09-25T11:47:53.047Z,28.48
2016-09-25T11:48:53.357Z,28.58
2016-09-25T11:49:53.039Z,28.66
2016-09-25T11:50:53.352Z,28.93
2016-09-25T11:51:53.390Z,29.28
2016-09-25T11:52:53.359Z,29.59
2016-09-25T11:53:53.042Z,29.72
2016-09-25T11:54:53.378Z,29.79
2016-09-25T11:55:53.093Z,29.87
2016-09-25T11:56:53.039Z,30.15
2016-09-25T11:57:53.051Z,30.3
2016-09-25T11:58:53.363Z,30.54
2016-09-25T11:59:53.061Z,30.72
2016-09-25T12:00:53.038Z,30.96
2016-09-25T12:01:53.359Z,31.13
2016-09-25T12:02:53.369Z,31.5
2016-09-25T12:03:53.039Z,31.67
2016-09-25T12:04:53.038Z,31.91
2016-09-25T12:05:53.048Z,32.17
2016-09-25T12:06:53.062Z,31.99
2016-09-25T12:07:53.045Z,32.25
2016-09-25T12:08:53.077Z,32.54
2016-09-25T12:09:53.057Z,32.79
2016-09-25T12:10:53.063Z,32.93
2016-09-25T12:11:53.059Z,33.19
2016-09-25T12:12:53.055Z,33.42
2016-09-25T12:13:53.064Z,33.6
2016-09-25T12:14:53.058Z,33.73
2016-09-25T12:15:53.060Z,33.95
2016-09-25T12:16:53.069Z,34.16
2016-09-25T12:17:53.379Z,34.22
2016-09-25T12:18:53.088Z,34.2
2016-09-25T12:19:53.081Z,34.27
2016-09-25T12:20:53.069Z,34.5
2016-09-25T12:21:53.080Z,34.56
2016-09-25T12:22:53.091Z,34.5
2016-09-25T12:23:53.090Z,34.69
2016-09-25T12:24:53.089Z,34.84
2016-09-25T12:25:53.108Z,35.07
2016-09-25T12:26:53.427Z,35.15
2016-09-25T12:27:53.116Z,35.15
2016-09-25T12:28:53.110Z,35.03
2016-09-25T12:29:53.422Z,34.89
2016-09-25T12:30:53.112Z,34.73
2016-09-25T12:31:53.435Z,34.6
2016-09-25T12:32:53.118Z,34.61
2016-09-25T12:33:53.429Z,33.89
2016-09-25T12:34:53.125Z,33.95
2016-09-25T12:35:53.442Z,34.05
2016-09-25T12:36:53.118Z,33.9
2016-09-25T12:37:53.125Z,33.83
2016-09-25T12:38:53.130Z,33.89
2016-09-25T12:39:53.127Z,33.86
2016-09-25T12:40:53.445Z,33.61
2016-09-25T12:41:53.134Z,33.94
2016-09-25T12:42:53.477Z,34.19
2016-09-25T12:43:53.145Z,34.19
2016-09-25T12:44:53.459Z,34.24
2016-09-25T12:45:53.463Z,33.89
2016-09-25T12:46:53.161Z,33.89
2016-09-25T12:47:53.155Z,33.76
2016-09-25T12:48:53.169Z,33.61
2016-09-25T12:49:53.158Z,33.74
2016-09-25T12:50:53.173Z,33.86
2016-09-25T12:51:53.187Z,34.01
2016-09-25T12:52:53.176Z,33.98
2016-09-25T12:53:53.199Z,33.95